sensor_id;sensor_type;location;lat;lon;timestamp;P1;durP1;ratioP1;P2;durP2;ratioP2
5730;SDS011;2890;51.950;7.668;2024-03-06T00:01:54;179.83;;;59.90;;
5730;SDS011;2890;51.950;7.668;2024-03-06T00:04:21;149.20;;;61.17;;
5730;SDS011;2890;51.950;7.668;2024-03-06T00:06:47;141.87;;;61.10;;
5730;SDS011;2890;51.950;7.668;2024-03-06T00:09:12;138.90;;;61.67;;
5730;SDS011;2890;51.950;7.668;2024-03-06T00:11:39;146.80;;;59.87;;
5730;SDS011;2890;51.950;7.668;2024-03-06T00:14:06;160.30;;;61.37;;
5730;SDS011;2890;51.950;7.668;2024-03-06T00:16:33;144.33;;;60.30;;
5730;SDS011;2890;51.950;7.668;2024-03-06T00:19:00;142.07;;;61.87;;
5730;SDS011;2890;51.950;7.668;2024-03-06T00:21:26;150.17;;;60.77;;
5730;SDS011;2890;51.950;7.668;2024-03-06T00:23:53;132.87;;;60.43;;
5730;SDS011;2890;51.950;7.668;2024-03-06T00:26:20;145.53;;;60.97;;
5730;SDS011;2890;51.950;7.668;2024-03-06T00:28:47;142.73;;;61.20;;
5730;SDS011;2890;51.950;7.668;2024-03-06T00:31:13;151.40;;;61.67;;
5730;SDS011;2890;51.950;7.668;2024-03-06T00:33:41;159.33;;;64.20;;
5730;SDS011;2890;51.950;7.668;2024-03-06T00:36:08;143.97;;;61.40;;
5730;SDS011;2890;51.950;7.668;2024-03-06T00:38:34;149.03;;;63.50;;
5730;SDS011;2890;51.950;7.668;2024-03-06T00:41:01;143.43;;;61.70;;
5730;SDS011;2890;51.950;7.668;2024-03-06T00:43:27;152.40;;;60.90;;
5730;SDS011;2890;51.950;7.668;2024-03-06T00:45:54;146.27;;;61.10;;
5730;SDS011;2890;51.950;7.668;2024-03-06T00:48:21;155.90;;;59.90;;
5730;SDS011;2890;51.950;7.668;2024-03-06T00:50:49;162.77;;;63.77;;
5730;SDS011;2890;51.950;7.668;2024-03-06T00:53:15;146.87;;;63.27;;
5730;SDS011;2890;51.950;7.668;2024-03-06T00:55:42;150.43;;;61.80;;
5730;SDS011;2890;51.950;7.668;2024-03-06T00:58:08;165.67;;;60.90;;
5730;SDS011;2890;51.950;7.668;2024-03-06T01:00:35;162.90;;;66.07;;
5730;SDS011;2890;51.950;7.668;2024-03-06T01:03:01;156.10;;;62.20;;
5730;SDS011;2890;51.950;7.668;2024-03-06T01:05:28;158.57;;;61.60;;
5730;SDS011;2890;51.950;7.668;2024-03-06T01:07:56;179.83;;;66.97;;
5730;SDS011;2890;51.950;7.668;2024-03-06T01:10:24;153.13;;;64.43;;
5730;SDS011;2890;51.950;7.668;2024-03-06T01:12:50;147.83;;;61.83;;
5730;SDS011;2890;51.950;7.668;2024-03-06T01:15:17;152.63;;;61.13;;
5730;SDS011;2890;51.950;7.668;2024-03-06T01:17:43;150.70;;;60.60;;
5730;SDS011;2890;51.950;7.668;2024-03-06T01:20:10;157.80;;;61.57;;
5730;SDS011;2890;51.950;7.668;2024-03-06T01:22:37;151.60;;;60.17;;
5730;SDS011;2890;51.950;7.668;2024-03-06T01:25:05;162.40;;;61.07;;
5730;SDS011;2890;51.950;7.668;2024-03-06T01:27:32;120.97;;;58.07;;
5730;SDS011;2890;51.950;7.668;2024-03-06T01:29:59;136.57;;;58.87;;
5730;SDS011;2890;51.950;7.668;2024-03-06T01:32:25;127.93;;;58.23;;
5730;SDS011;2890;51.950;7.668;2024-03-06T01:34:52;139.60;;;62.10;;
5730;SDS011;2890;51.950;7.668;2024-03-06T01:37:18;155.83;;;61.63;;
5730;SDS011;2890;51.950;7.668;2024-03-06T01:39:45;138.97;;;61.17;;
5730;SDS011;2890;51.950;7.668;2024-03-06T01:42:12;153.07;;;62.80;;
5730;SDS011;2890;51.950;7.668;2024-03-06T01:44:39;140.93;;;61.10;;
5730;SDS011;2890;51.950;7.668;2024-03-06T01:47:05;155.27;;;62.70;;
5730;SDS011;2890;51.950;7.668;2024-03-06T01:49:32;143.10;;;58.77;;
5730;SDS011;2890;51.950;7.668;2024-03-06T01:51:59;146.13;;;59.60;;
5730;SDS011;2890;51.950;7.668;2024-03-06T01:54:26;150.87;;;60.43;;
5730;SDS011;2890;51.950;7.668;2024-03-06T01:56:53;167.90;;;62.73;;
5730;SDS011;2890;51.950;7.668;2024-03-06T01:59:22;142.60;;;62.40;;
5730;SDS011;2890;51.950;7.668;2024-03-06T02:01:52;155.63;;;63.37;;
5730;SDS011;2890;51.950;7.668;2024-03-06T02:04:19;147.80;;;63.80;;
5730;SDS011;2890;51.950;7.668;2024-03-06T02:06:45;143.43;;;59.47;;
5730;SDS011;2890;51.950;7.668;2024-03-06T02:09:12;150.07;;;63.77;;
5730;SDS011;2890;51.950;7.668;2024-03-06T02:11:39;149.80;;;61.60;;
5730;SDS011;2890;51.950;7.668;2024-03-06T02:14:06;151.03;;;60.50;;
5730;SDS011;2890;51.950;7.668;2024-03-06T02:16:36;144.97;;;60.80;;
5730;SDS011;2890;51.950;7.668;2024-03-06T02:19:03;144.03;;;61.40;;
5730;SDS011;2890;51.950;7.668;2024-03-06T02:21:31;143.67;;;60.10;;
5730;SDS011;2890;51.950;7.668;2024-03-06T02:23:58;140.43;;;62.17;;
5730;SDS011;2890;51.950;7.668;2024-03-06T02:26:24;137.73;;;61.60;;
5730;SDS011;2890;51.950;7.668;2024-03-06T02:28:51;155.60;;;61.40;;
5730;SDS011;2890;51.950;7.668;2024-03-06T02:31:19;152.03;;;61.80;;
5730;SDS011;2890;51.950;7.668;2024-03-06T02:33:47;149.77;;;61.00;;
5730;SDS011;2890;51.950;7.668;2024-03-06T02:36:14;153.60;;;59.80;;
5730;SDS011;2890;51.950;7.668;2024-03-06T02:38:43;147.57;;;61.87;;
5730;SDS011;2890;51.950;7.668;2024-03-06T02:41:09;148.63;;;62.13;;
5730;SDS011;2890;51.950;7.668;2024-03-06T02:43:36;154.90;;;63.00;;
5730;SDS011;2890;51.950;7.668;2024-03-06T02:46:03;157.30;;;63.37;;
5730;SDS011;2890;51.950;7.668;2024-03-06T02:48:30;152.90;;;60.40;;
5730;SDS011;2890;51.950;7.668;2024-03-06T02:50:56;147.63;;;58.80;;
5730;SDS011;2890;51.950;7.668;2024-03-06T02:53:23;151.47;;;62.80;;
5730;SDS011;2890;51.950;7.668;2024-03-06T02:55:51;164.03;;;61.77;;
5730;SDS011;2890;51.950;7.668;2024-03-06T02:58:18;153.40;;;60.77;;
5730;SDS011;2890;51.950;7.668;2024-03-06T03:00:44;151.13;;;61.33;;
5730;SDS011;2890;51.950;7.668;2024-03-06T03:03:11;155.33;;;62.80;;
5730;SDS011;2890;51.950;7.668;2024-03-06T03:05:38;157.87;;;60.70;;
5730;SDS011;2890;51.950;7.668;2024-03-06T03:08:05;165.77;;;63.50;;
5730;SDS011;2890;51.950;7.668;2024-03-06T03:10:32;154.57;;;64.50;;
5730;SDS011;2890;51.950;7.668;2024-03-06T03:13:00;162.70;;;61.37;;
5730;SDS011;2890;51.950;7.668;2024-03-06T03:15:27;165.67;;;66.60;;
5730;SDS011;2890;51.950;7.668;2024-03-06T03:17:54;160.47;;;63.80;;
5730;SDS011;2890;51.950;7.668;2024-03-06T03:20:20;162.83;;;63.30;;
5730;SDS011;2890;51.950;7.668;2024-03-06T03:22:46;139.20;;;59.90;;
5730;SDS011;2890;51.950;7.668;2024-03-06T03:25:13;157.97;;;63.97;;
5730;SDS011;2890;51.950;7.668;2024-03-06T03:27:40;137.63;;;60.07;;
5730;SDS011;2890;51.950;7.668;2024-03-06T03:30:10;147.43;;;60.87;;
5730;SDS011;2890;51.950;7.668;2024-03-06T03:32:37;156.57;;;63.73;;
5730;SDS011;2890;51.950;7.668;2024-03-06T03:35:04;152.50;;;61.40;;
5730;SDS011;2890;51.950;7.668;2024-03-06T03:37:31;160.93;;;63.47;;
5730;SDS011;2890;51.950;7.668;2024-03-06T03:39:58;147.87;;;61.67;;
5730;SDS011;2890;51.950;7.668;2024-03-06T03:42:24;167.53;;;64.47;;
5730;SDS011;2890;51.950;7.668;2024-03-06T03:44:51;158.77;;;62.03;;
5730;SDS011;2890;51.950;7.668;2024-03-06T03:47:19;164.63;;;64.70;;
5730;SDS011;2890;51.950;7.668;2024-03-06T03:49:45;164.43;;;64.80;;
5730;SDS011;2890;51.950;7.668;2024-03-06T03:52:12;157.97;;;59.60;;
5730;SDS011;2890;51.950;7.668;2024-03-06T03:54:39;176.07;;;64.00;;
5730;SDS011;2890;51.950;7.668;2024-03-06T03:57:05;185.90;;;65.53;;
5730;SDS011;2890;51.950;7.668;2024-03-06T03:59:33;174.53;;;61.57;;
5730;SDS011;2890;51.950;7.668;2024-03-06T04:02:00;182.27;;;62.03;;
5730;SDS011;2890;51.950;7.668;2024-03-06T04:04:28;162.37;;;62.80;;
5730;SDS011;2890;51.950;7.668;2024-03-06T04:06:55;178.20;;;61.07;;
5730;SDS011;2890;51.950;7.668;2024-03-06T04:09:24;175.23;;;62.23;;
5730;SDS011;2890;51.950;7.668;2024-03-06T04:11:51;181.83;;;63.57;;
5730;SDS011;2890;51.950;7.668;2024-03-06T04:14:17;162.63;;;60.87;;
5730;SDS011;2890;51.950;7.668;2024-03-06T04:16:44;185.53;;;62.73;;
5730;SDS011;2890;51.950;7.668;2024-03-06T04:19:11;163.80;;;62.10;;
5730;SDS011;2890;51.950;7.668;2024-03-06T04:21:41;161.13;;;61.13;;
5730;SDS011;2890;51.950;7.668;2024-03-06T04:24:08;161.27;;;59.37;;
5730;SDS011;2890;51.950;7.668;2024-03-06T04:26:34;178.83;;;60.87;;
5730;SDS011;2890;51.950;7.668;2024-03-06T04:29:01;157.57;;;59.23;;
5730;SDS011;2890;51.950;7.668;2024-03-06T04:31:28;148.00;;;59.53;;
5730;SDS011;2890;51.950;7.668;2024-03-06T04:33:55;145.73;;;58.20;;
5730;SDS011;2890;51.950;7.668;2024-03-06T04:36:21;151.57;;;59.63;;
5730;SDS011;2890;51.950;7.668;2024-03-06T04:38:49;147.70;;;58.00;;
5730;SDS011;2890;51.950;7.668;2024-03-06T04:41:17;141.47;;;58.57;;
5730;SDS011;2890;51.950;7.668;2024-03-06T04:43:44;150.63;;;59.70;;
5730;SDS011;2890;51.950;7.668;2024-03-06T04:46:12;157.37;;;59.27;;
5730;SDS011;2890;51.950;7.668;2024-03-06T04:48:38;154.80;;;60.93;;
5730;SDS011;2890;51.950;7.668;2024-03-06T04:51:05;140.67;;;57.93;;
5730;SDS011;2890;51.950;7.668;2024-03-06T04:53:31;146.60;;;58.93;;
5730;SDS011;2890;51.950;7.668;2024-03-06T04:55:59;145.37;;;57.50;;
5730;SDS011;2890;51.950;7.668;2024-03-06T04:58:26;142.50;;;56.63;;
5730;SDS011;2890;51.950;7.668;2024-03-06T05:00:52;147.43;;;57.10;;
5730;SDS011;2890;51.950;7.668;2024-03-06T05:03:19;141.37;;;57.10;;
5730;SDS011;2890;51.950;7.668;2024-03-06T05:05:46;126.00;;;57.03;;
5730;SDS011;2890;51.950;7.668;2024-03-06T05:08:12;141.77;;;56.17;;
5730;SDS011;2890;51.950;7.668;2024-03-06T05:10:39;130.30;;;56.70;;
5730;SDS011;2890;51.950;7.668;2024-03-06T05:13:06;122.97;;;52.93;;
5730;SDS011;2890;51.950;7.668;2024-03-06T05:15:33;125.67;;;52.37;;
5730;SDS011;2890;51.950;7.668;2024-03-06T05:18:00;126.03;;;55.90;;
5730;SDS011;2890;51.950;7.668;2024-03-06T05:20:27;127.07;;;54.93;;
5730;SDS011;2890;51.950;7.668;2024-03-06T05:22:56;123.20;;;54.97;;
5730;SDS011;2890;51.950;7.668;2024-03-06T05:25:22;125.33;;;53.00;;
5730;SDS011;2890;51.950;7.668;2024-03-06T05:27:49;118.77;;;54.77;;
5730;SDS011;2890;51.950;7.668;2024-03-06T05:30:17;130.83;;;57.40;;
5730;SDS011;2890;51.950;7.668;2024-03-06T05:32:44;124.43;;;56.17;;
5730;SDS011;2890;51.950;7.668;2024-03-06T05:35:12;109.33;;;53.83;;
5730;SDS011;2890;51.950;7.668;2024-03-06T05:37:38;128.27;;;55.63;;
5730;SDS011;2890;51.950;7.668;2024-03-06T05:40:05;129.93;;;56.00;;
5730;SDS011;2890;51.950;7.668;2024-03-06T05:42:34;119.77;;;55.40;;
5730;SDS011;2890;51.950;7.668;2024-03-06T05:45:00;124.53;;;56.00;;
5730;SDS011;2890;51.950;7.668;2024-03-06T05:47:31;125.60;;;56.20;;
5730;SDS011;2890;51.950;7.668;2024-03-06T05:49:58;121.83;;;54.90;;
5730;SDS011;2890;51.950;7.668;2024-03-06T05:52:24;127.20;;;55.90;;
5730;SDS011;2890;51.950;7.668;2024-03-06T05:54:50;127.33;;;57.97;;
5730;SDS011;2890;51.950;7.668;2024-03-06T05:57:17;126.93;;;56.70;;
5730;SDS011;2890;51.950;7.668;2024-03-06T05:59:43;130.67;;;56.47;;
5730;SDS011;2890;51.950;7.668;2024-03-06T06:02:10;139.83;;;57.93;;
5730;SDS011;2890;51.950;7.668;2024-03-06T06:04:38;136.33;;;56.53;;
5730;SDS011;2890;51.950;7.668;2024-03-06T06:07:04;126.60;;;58.30;;
5730;SDS011;2890;51.950;7.668;2024-03-06T06:09:31;136.10;;;59.00;;
5730;SDS011;2890;51.950;7.668;2024-03-06T06:11:58;138.03;;;57.07;;
5730;SDS011;2890;51.950;7.668;2024-03-06T06:14:24;133.30;;;58.27;;
5730;SDS011;2890;51.950;7.668;2024-03-06T06:16:52;139.93;;;59.03;;
5730;SDS011;2890;51.950;7.668;2024-03-06T06:19:18;134.33;;;56.10;;
5730;SDS011;2890;51.950;7.668;2024-03-06T06:21:46;126.00;;;57.40;;
5730;SDS011;2890;51.950;7.668;2024-03-06T06:24:13;135.33;;;56.50;;
5730;SDS011;2890;51.950;7.668;2024-03-06T06:26:39;136.23;;;57.93;;
5730;SDS011;2890;51.950;7.668;2024-03-06T06:29:07;132.07;;;54.73;;
5730;SDS011;2890;51.950;7.668;2024-03-06T06:31:33;126.87;;;57.53;;
5730;SDS011;2890;51.950;7.668;2024-03-06T06:34:00;121.17;;;56.00;;
5730;SDS011;2890;51.950;7.668;2024-03-06T06:36:26;112.20;;;54.57;;
5730;SDS011;2890;51.950;7.668;2024-03-06T06:38:54;121.73;;;54.23;;
5730;SDS011;2890;51.950;7.668;2024-03-06T06:41:21;116.50;;;53.43;;
5730;SDS011;2890;51.950;7.668;2024-03-06T06:43:48;112.60;;;54.67;;
5730;SDS011;2890;51.950;7.668;2024-03-06T06:46:16;113.77;;;54.07;;
5730;SDS011;2890;51.950;7.668;2024-03-06T06:48:43;109.27;;;53.90;;
5730;SDS011;2890;51.950;7.668;2024-03-06T06:51:09;106.73;;;54.00;;
5730;SDS011;2890;51.950;7.668;2024-03-06T06:53:38;106.50;;;52.70;;
5730;SDS011;2890;51.950;7.668;2024-03-06T06:56:06;104.97;;;52.20;;
5730;SDS011;2890;51.950;7.668;2024-03-06T06:58:33;91.30;;;49.23;;
5730;SDS011;2890;51.950;7.668;2024-03-06T07:00:59;100.77;;;50.20;;
5730;SDS011;2890;51.950;7.668;2024-03-06T07:03:26;98.77;;;51.40;;
5730;SDS011;2890;51.950;7.668;2024-03-06T07:05:54;106.07;;;50.80;;
5730;SDS011;2890;51.950;7.668;2024-03-06T07:08:21;104.17;;;49.97;;
5730;SDS011;2890;51.950;7.668;2024-03-06T07:10:48;100.93;;;50.27;;
5730;SDS011;2890;51.950;7.668;2024-03-06T07:13:15;98.57;;;48.60;;
5730;SDS011;2890;51.950;7.668;2024-03-06T07:15:43;94.13;;;49.07;;
5730;SDS011;2890;51.950;7.668;2024-03-06T07:18:09;89.20;;;48.37;;
5730;SDS011;2890;51.950;7.668;2024-03-06T07:20:35;79.50;;;45.87;;
5730;SDS011;2890;51.950;7.668;2024-03-06T07:23:02;83.50;;;46.63;;
5730;SDS011;2890;51.950;7.668;2024-03-06T07:25:29;84.70;;;46.87;;
5730;SDS011;2890;51.950;7.668;2024-03-06T07:27:55;78.17;;;45.93;;
5730;SDS011;2890;51.950;7.668;2024-03-06T07:30:23;83.57;;;46.93;;
5730;SDS011;2890;51.950;7.668;2024-03-06T07:32:50;90.33;;;48.17;;
5730;SDS011;2890;51.950;7.668;2024-03-06T07:35:16;84.30;;;45.63;;
5730;SDS011;2890;51.950;7.668;2024-03-06T07:37:44;84.23;;;45.70;;
5730;SDS011;2890;51.950;7.668;2024-03-06T07:40:10;93.63;;;48.07;;
5730;SDS011;2890;51.950;7.668;2024-03-06T07:42:37;95.13;;;49.47;;
5730;SDS011;2890;51.950;7.668;2024-03-06T07:45:04;103.47;;;50.07;;
5730;SDS011;2890;51.950;7.668;2024-03-06T07:47:33;103.50;;;51.87;;
5730;SDS011;2890;51.950;7.668;2024-03-06T07:50:00;120.20;;;54.10;;
5730;SDS011;2890;51.950;7.668;2024-03-06T07:52:26;93.23;;;49.00;;
5730;SDS011;2890;51.950;7.668;2024-03-06T07:56:20;97.63;;;47.80;;
5730;SDS011;2890;51.950;7.668;2024-03-06T07:58:11;69.63;;;42.70;;
5730;SDS011;2890;51.950;7.668;2024-03-06T08:00:37;78.50;;;46.60;;
5730;SDS011;2890;51.950;7.668;2024-03-06T08:03:06;86.17;;;46.10;;
5730;SDS011;2890;51.950;7.668;2024-03-06T08:05:32;81.17;;;45.70;;
5730;SDS011;2890;51.950;7.668;2024-03-06T08:07:59;78.87;;;45.53;;
5730;SDS011;2890;51.950;7.668;2024-03-06T08:10:28;74.17;;;43.90;;
5730;SDS011;2890;51.950;7.668;2024-03-06T08:12:54;74.40;;;44.77;;
5730;SDS011;2890;51.950;7.668;2024-03-06T08:15:24;92.43;;;47.67;;
5730;SDS011;2890;51.950;7.668;2024-03-06T08:17:51;94.60;;;46.37;;
5730;SDS011;2890;51.950;7.668;2024-03-06T08:20:19;98.50;;;47.27;;
5730;SDS011;2890;51.950;7.668;2024-03-06T08:22:45;86.47;;;46.07;;
5730;SDS011;2890;51.950;7.668;2024-03-06T08:25:12;98.63;;;49.70;;
5730;SDS011;2890;51.950;7.668;2024-03-06T08:27:39;86.27;;;46.00;;
5730;SDS011;2890;51.950;7.668;2024-03-06T08:30:07;86.33;;;46.33;;
5730;SDS011;2890;51.950;7.668;2024-03-06T08:32:34;90.60;;;46.73;;
5730;SDS011;2890;51.950;7.668;2024-03-06T08:35:02;77.10;;;45.57;;
5730;SDS011;2890;51.950;7.668;2024-03-06T08:37:32;72.93;;;42.17;;
5730;SDS011;2890;51.950;7.668;2024-03-06T08:39:58;74.30;;;44.00;;
5730;SDS011;2890;51.950;7.668;2024-03-06T08:42:25;73.90;;;42.83;;
5730;SDS011;2890;51.950;7.668;2024-03-06T08:44:52;76.13;;;43.27;;
5730;SDS011;2890;51.950;7.668;2024-03-06T08:47:18;75.87;;;45.03;;
5730;SDS011;2890;51.950;7.668;2024-03-06T08:49:45;71.93;;;42.40;;
5730;SDS011;2890;51.950;7.668;2024-03-06T08:52:12;60.90;;;40.50;;
5730;SDS011;2890;51.950;7.668;2024-03-06T08:54:41;60.60;;;40.00;;
5730;SDS011;2890;51.950;7.668;2024-03-06T08:57:07;57.40;;;38.40;;
5730;SDS011;2890;51.950;7.668;2024-03-06T08:59:34;64.87;;;40.33;;
5730;SDS011;2890;51.950;7.668;2024-03-06T09:02:11;59.37;;;39.73;;
5730;SDS011;2890;51.950;7.668;2024-03-06T09:04:39;62.97;;;38.87;;
5730;SDS011;2890;51.950;7.668;2024-03-06T09:07:05;67.57;;;42.03;;
5730;SDS011;2890;51.950;7.668;2024-03-06T09:09:32;61.33;;;39.83;;
5730;SDS011;2890;51.950;7.668;2024-03-06T09:12:02;66.60;;;41.83;;
5730;SDS011;2890;51.950;7.668;2024-03-06T09:14:30;66.00;;;41.17;;
5730;SDS011;2890;51.950;7.668;2024-03-06T09:16:57;65.83;;;41.97;;
5730;SDS011;2890;51.950;7.668;2024-03-06T09:19:23;63.73;;;42.30;;
5730;SDS011;2890;51.950;7.668;2024-03-06T09:21:50;58.90;;;39.70;;
5730;SDS011;2890;51.950;7.668;2024-03-06T09:24:16;60.30;;;39.60;;
5730;SDS011;2890;51.950;7.668;2024-03-06T09:26:43;59.17;;;39.20;;
5730;SDS011;2890;51.950;7.668;2024-03-06T09:29:11;64.93;;;39.67;;
5730;SDS011;2890;51.950;7.668;2024-03-06T09:31:37;57.80;;;38.67;;
5730;SDS011;2890;51.950;7.668;2024-03-06T09:34:04;61.83;;;39.00;;
5730;SDS011;2890;51.950;7.668;2024-03-06T09:36:30;61.70;;;39.97;;
5730;SDS011;2890;51.950;7.668;2024-03-06T09:38:58;55.07;;;38.83;;
5730;SDS011;2890;51.950;7.668;2024-03-06T09:41:24;56.57;;;36.83;;
5730;SDS011;2890;51.950;7.668;2024-03-06T09:43:51;54.83;;;36.13;;
5730;SDS011;2890;51.950;7.668;2024-03-06T09:46:19;54.43;;;35.67;;
5730;SDS011;2890;51.950;7.668;2024-03-06T09:48:47;51.60;;;34.63;;
5730;SDS011;2890;51.950;7.668;2024-03-06T09:51:14;45.73;;;32.67;;
5730;SDS011;2890;51.950;7.668;2024-03-06T09:53:41;51.17;;;33.60;;
5730;SDS011;2890;51.950;7.668;2024-03-06T09:56:08;51.13;;;34.77;;
5730;SDS011;2890;51.950;7.668;2024-03-06T09:58:35;51.10;;;36.47;;
5730;SDS011;2890;51.950;7.668;2024-03-06T10:01:02;54.17;;;35.97;;
5730;SDS011;2890;51.950;7.668;2024-03-06T10:03:33;48.50;;;34.30;;
5730;SDS011;2890;51.950;7.668;2024-03-06T10:05:59;48.23;;;33.40;;
5730;SDS011;2890;51.950;7.668;2024-03-06T10:08:26;54.97;;;35.43;;
5730;SDS011;2890;51.950;7.668;2024-03-06T10:10:53;48.40;;;33.50;;
5730;SDS011;2890;51.950;7.668;2024-03-06T10:13:23;46.27;;;33.70;;
5730;SDS011;2890;51.950;7.668;2024-03-06T10:15:57;48.83;;;32.77;;
5730;SDS011;2890;51.950;7.668;2024-03-06T10:18:26;51.73;;;34.13;;
5730;SDS011;2890;51.950;7.668;2024-03-06T10:20:54;50.90;;;34.33;;
5730;SDS011;2890;51.950;7.668;2024-03-06T10:23:21;48.10;;;33.20;;
5730;SDS011;2890;51.950;7.668;2024-03-06T10:25:48;49.00;;;33.33;;
5730;SDS011;2890;51.950;7.668;2024-03-06T10:28:17;47.67;;;32.17;;
5730;SDS011;2890;51.950;7.668;2024-03-06T10:30:44;44.80;;;30.73;;
5730;SDS011;2890;51.950;7.668;2024-03-06T10:33:12;44.57;;;31.73;;
5730;SDS011;2890;51.950;7.668;2024-03-06T10:35:39;45.23;;;30.10;;
5730;SDS011;2890;51.950;7.668;2024-03-06T10:38:08;43.10;;;29.73;;
5730;SDS011;2890;51.950;7.668;2024-03-06T10:40:37;39.87;;;28.60;;
5730;SDS011;2890;51.950;7.668;2024-03-06T10:43:04;43.77;;;28.93;;
5730;SDS011;2890;51.950;7.668;2024-03-06T10:45:34;39.97;;;29.50;;
5730;SDS011;2890;51.950;7.668;2024-03-06T10:48:07;39.33;;;28.60;;
5730;SDS011;2890;51.950;7.668;2024-03-06T10:50:34;43.43;;;29.60;;
5730;SDS011;2890;51.950;7.668;2024-03-06T10:53:01;38.40;;;28.57;;
5730;SDS011;2890;51.950;7.668;2024-03-06T10:55:31;43.90;;;30.03;;
5730;SDS011;2890;51.950;7.668;2024-03-06T10:57:59;39.43;;;28.00;;
5730;SDS011;2890;51.950;7.668;2024-03-06T11:00:26;43.43;;;28.87;;
5730;SDS011;2890;51.950;7.668;2024-03-06T11:02:54;40.33;;;28.40;;
5730;SDS011;2890;51.950;7.668;2024-03-06T11:05:21;44.07;;;29.00;;
5730;SDS011;2890;51.950;7.668;2024-03-06T11:07:47;43.03;;;30.30;;
5730;SDS011;2890;51.950;7.668;2024-03-06T11:10:28;40.40;;;29.20;;
5730;SDS011;2890;51.950;7.668;2024-03-06T11:12:57;40.30;;;28.13;;
5730;SDS011;2890;51.950;7.668;2024-03-06T11:15:24;41.40;;;28.60;;
5730;SDS011;2890;51.950;7.668;2024-03-06T11:17:50;43.67;;;28.50;;
5730;SDS011;2890;51.950;7.668;2024-03-06T11:20:19;40.10;;;29.27;;
5730;SDS011;2890;51.950;7.668;2024-03-06T11:23:07;39.47;;;28.77;;
5730;SDS011;2890;51.950;7.668;2024-03-06T11:25:56;40.63;;;29.40;;
5730;SDS011;2890;51.950;7.668;2024-03-06T11:28:28;43.00;;;28.97;;
5730;SDS011;2890;51.950;7.668;2024-03-06T11:30:55;45.30;;;29.40;;
5730;SDS011;2890;51.950;7.668;2024-03-06T11:33:23;46.60;;;30.27;;
5730;SDS011;2890;51.950;7.668;2024-03-06T11:38:40;42.00;;;28.80;;
5730;SDS011;2890;51.950;7.668;2024-03-06T11:41:08;40.67;;;26.73;;
5730;SDS011;2890;51.950;7.668;2024-03-06T11:43:41;46.97;;;29.20;;
5730;SDS011;2890;51.950;7.668;2024-03-06T11:46:08;38.70;;;27.00;;
5730;SDS011;2890;51.950;7.668;2024-03-06T11:48:35;35.93;;;26.93;;
5730;SDS011;2890;51.950;7.668;2024-03-06T11:51:02;42.73;;;26.00;;
5730;SDS011;2890;51.950;7.668;2024-03-06T11:53:29;36.83;;;26.60;;
5730;SDS011;2890;51.950;7.668;2024-03-06T11:55:56;34.80;;;26.50;;
5730;SDS011;2890;51.950;7.668;2024-03-06T11:58:24;39.83;;;25.10;;
5730;SDS011;2890;51.950;7.668;2024-03-06T12:00:51;41.87;;;27.17;;
5730;SDS011;2890;51.950;7.668;2024-03-06T12:03:18;34.40;;;26.20;;
5730;SDS011;2890;51.950;7.668;2024-03-06T12:05:45;36.20;;;26.27;;
5730;SDS011;2890;51.950;7.668;2024-03-06T12:08:11;35.10;;;26.07;;
5730;SDS011;2890;51.950;7.668;2024-03-06T12:10:38;34.33;;;26.00;;
5730;SDS011;2890;51.950;7.668;2024-03-06T12:13:13;36.60;;;26.20;;
5730;SDS011;2890;51.950;7.668;2024-03-06T12:15:43;31.73;;;25.40;;
5730;SDS011;2890;51.950;7.668;2024-03-06T12:18:10;32.23;;;24.90;;
5730;SDS011;2890;51.950;7.668;2024-03-06T12:20:40;36.63;;;26.27;;
5730;SDS011;2890;51.950;7.668;2024-03-06T12:23:10;35.70;;;25.93;;
5730;SDS011;2890;51.950;7.668;2024-03-06T12:25:45;34.23;;;25.93;;
5730;SDS011;2890;51.950;7.668;2024-03-06T12:28:12;37.60;;;26.07;;
5730;SDS011;2890;51.950;7.668;2024-03-06T12:30:40;38.40;;;26.80;;
5730;SDS011;2890;51.950;7.668;2024-03-06T12:33:09;36.33;;;27.17;;
5730;SDS011;2890;51.950;7.668;2024-03-06T12:35:39;38.63;;;26.13;;
5730;SDS011;2890;51.950;7.668;2024-03-06T12:38:11;37.07;;;27.63;;
5730;SDS011;2890;51.950;7.668;2024-03-06T12:40:38;38.73;;;27.93;;
5730;SDS011;2890;51.950;7.668;2024-03-06T12:43:05;41.63;;;28.50;;
5730;SDS011;2890;51.950;7.668;2024-03-06T12:45:32;34.20;;;26.87;;
5730;SDS011;2890;51.950;7.668;2024-03-06T12:47:59;42.37;;;27.90;;
5730;SDS011;2890;51.950;7.668;2024-03-06T12:50:27;40.33;;;27.30;;
5730;SDS011;2890;51.950;7.668;2024-03-06T12:52:53;34.47;;;25.70;;
5730;SDS011;2890;51.950;7.668;2024-03-06T12:55:20;32.00;;;25.53;;
5730;SDS011;2890;51.950;7.668;2024-03-06T12:57:46;38.60;;;25.50;;
5730;SDS011;2890;51.950;7.668;2024-03-06T13:00:15;34.30;;;25.90;;
5730;SDS011;2890;51.950;7.668;2024-03-06T13:02:41;32.20;;;25.60;;
5730;SDS011;2890;51.950;7.668;2024-03-06T13:05:09;34.10;;;26.37;;
5730;SDS011;2890;51.950;7.668;2024-03-06T13:07:37;31.10;;;25.00;;
5730;SDS011;2890;51.950;7.668;2024-03-06T13:10:03;35.17;;;26.13;;
5730;SDS011;2890;51.950;7.668;2024-03-06T13:12:30;34.37;;;25.43;;
5730;SDS011;2890;51.950;7.668;2024-03-06T13:14:57;29.87;;;24.33;;
5730;SDS011;2890;51.950;7.668;2024-03-06T13:17:23;33.60;;;24.13;;
5730;SDS011;2890;51.950;7.668;2024-03-06T13:19:50;34.73;;;25.40;;
5730;SDS011;2890;51.950;7.668;2024-03-06T13:22:16;37.30;;;25.17;;
5730;SDS011;2890;51.950;7.668;2024-03-06T13:24:44;33.90;;;25.37;;
5730;SDS011;2890;51.950;7.668;2024-03-06T13:27:10;35.10;;;26.07;;
5730;SDS011;2890;51.950;7.668;2024-03-06T13:29:37;35.50;;;26.47;;
5730;SDS011;2890;51.950;7.668;2024-03-06T13:32:04;34.40;;;25.20;;
5730;SDS011;2890;51.950;7.668;2024-03-06T13:34:32;34.10;;;25.37;;
5730;SDS011;2890;51.950;7.668;2024-03-06T13:36:58;34.17;;;25.87;;
5730;SDS011;2890;51.950;7.668;2024-03-06T13:39:25;34.67;;;26.63;;
5730;SDS011;2890;51.950;7.668;2024-03-06T13:41:53;32.70;;;25.07;;
5730;SDS011;2890;51.950;7.668;2024-03-06T13:44:19;30.97;;;25.00;;
5730;SDS011;2890;51.950;7.668;2024-03-06T13:46:46;29.30;;;23.27;;
5730;SDS011;2890;51.950;7.668;2024-03-06T13:52:03;34.27;;;25.33;;
5730;SDS011;2890;51.950;7.668;2024-03-06T13:54:32;36.70;;;26.30;;
5730;SDS011;2890;51.950;7.668;2024-03-06T13:57:00;40.67;;;27.57;;
5730;SDS011;2890;51.950;7.668;2024-03-06T13:59:27;36.03;;;25.10;;
5730;SDS011;2890;51.950;7.668;2024-03-06T14:01:54;38.30;;;27.03;;
5730;SDS011;2890;51.950;7.668;2024-03-06T14:04:21;33.70;;;25.63;;
5730;SDS011;2890;51.950;7.668;2024-03-06T14:06:47;36.30;;;26.20;;
5730;SDS011;2890;51.950;7.668;2024-03-06T14:09:15;30.87;;;24.43;;
5730;SDS011;2890;51.950;7.668;2024-03-06T14:11:41;36.80;;;25.23;;
5730;SDS011;2890;51.950;7.668;2024-03-06T14:14:09;33.00;;;24.93;;
5730;SDS011;2890;51.950;7.668;2024-03-06T14:16:36;36.73;;;24.60;;
5730;SDS011;2890;51.950;7.668;2024-03-06T14:19:05;34.00;;;25.27;;
5730;SDS011;2890;51.950;7.668;2024-03-06T14:21:31;31.20;;;24.43;;
5730;SDS011;2890;51.950;7.668;2024-03-06T14:23:58;34.60;;;24.00;;
5730;SDS011;2890;51.950;7.668;2024-03-06T14:26:28;31.30;;;24.33;;
5730;SDS011;2890;51.950;7.668;2024-03-06T14:28:55;34.53;;;25.53;;
5730;SDS011;2890;51.950;7.668;2024-03-06T14:31:23;39.07;;;25.60;;
5730;SDS011;2890;51.950;7.668;2024-03-06T14:33:49;34.07;;;25.50;;
5730;SDS011;2890;51.950;7.668;2024-03-06T14:36:16;35.90;;;25.33;;
5730;SDS011;2890;51.950;7.668;2024-03-06T14:38:42;36.47;;;24.70;;
5730;SDS011;2890;51.950;7.668;2024-03-06T14:41:09;36.10;;;24.17;;
5730;SDS011;2890;51.950;7.668;2024-03-06T14:43:36;32.63;;;23.77;;
5730;SDS011;2890;51.950;7.668;2024-03-06T14:46:03;34.63;;;24.53;;
5730;SDS011;2890;51.950;7.668;2024-03-06T14:48:32;33.80;;;23.90;;